createdAt,value
2017-07-10T00:01:18.289Z,8.30
2017-07-10T00:03:44.708Z,7.20
2017-07-10T00:06:11.020Z,10.33
2017-07-10T00:08:37.422Z,6.50
2017-07-10T00:11:03.791Z,7.60
2017-07-10T00:13:30.103Z,9.83
2017-07-10T00:15:56.414Z,9.83
2017-07-10T00:18:22.827Z,9.77
2017-07-10T00:20:49.921Z,15.60
2017-07-10T00:23:16.246Z,10.40
2017-07-10T00:25:42.596Z,8.67
2017-07-10T00:28:08.963Z,12.27
2017-07-10T00:30:36.106Z,7.57
2017-07-10T00:33:03.183Z,10.10
2017-07-10T00:35:29.543Z,8.70
2017-07-10T00:37:55.849Z,7.23
2017-07-10T00:40:22.153Z,5.83
2017-07-10T00:42:49.284Z,13.30
2017-07-10T00:45:15.608Z,7.67
2017-07-10T00:47:41.977Z,9.70
2017-07-10T00:50:09.063Z,8.17
2017-07-10T00:52:35.374Z,10.00
2017-07-10T00:55:01.734Z,13.43
2017-07-10T00:57:28.129Z,13.97
2017-07-10T00:59:54.493Z,8.07
2017-07-10T01:02:20.907Z,12.10
2017-07-10T01:04:47.332Z,13.83
2017-07-10T01:07:13.710Z,7.43
2017-07-10T01:09:40.177Z,12.47
2017-07-10T01:12:07.244Z,11.50
2017-07-10T01:14:33.618Z,6.77
2017-07-10T01:16:59.926Z,7.00
2017-07-10T01:19:26.276Z,8.63
2017-07-10T01:21:52.668Z,7.57
2017-07-10T01:24:18.999Z,9.30
2017-07-10T01:26:45.390Z,6.37
2017-07-10T01:29:11.759Z,7.53
2017-07-10T01:31:38.055Z,8.23
2017-07-10T01:34:04.363Z,6.93
2017-07-10T01:36:30.774Z,6.93
2017-07-10T01:38:57.088Z,11.40
2017-07-10T01:41:23.444Z,7.93
2017-07-10T01:43:49.778Z,12.80
2017-07-10T01:46:16.141Z,7.73
2017-07-10T01:48:42.529Z,8.40
2017-07-10T01:51:08.975Z,10.27
2017-07-10T01:53:35.392Z,8.57
2017-07-10T01:56:01.756Z,9.20
2017-07-10T01:58:28.124Z,9.90
2017-07-10T02:00:55.185Z,7.13
2017-07-10T02:03:21.558Z,6.43
2017-07-10T02:05:47.869Z,15.03
2017-07-10T02:08:14.189Z,11.83
2017-07-10T02:10:40.554Z,14.27
2017-07-10T02:13:06.859Z,10.07
2017-07-10T02:15:33.164Z,8.07
2017-07-10T02:17:59.873Z,8.27
2017-07-10T02:20:26.222Z,11.27
2017-07-10T02:22:53.283Z,12.30
2017-07-10T02:25:19.699Z,14.40
2017-07-10T02:27:46.801Z,11.90
2017-07-10T02:30:13.166Z,13.00
2017-07-10T02:32:39.560Z,6.43
2017-07-10T02:35:05.910Z,10.87
2017-07-10T02:37:32.259Z,11.83
2017-07-10T02:39:58.636Z,11.30
2017-07-10T02:42:24.967Z,7.40
2017-07-10T02:44:51.295Z,9.63
2017-07-10T02:47:17.700Z,6.77
2017-07-10T02:49:44.794Z,13.60
2017-07-10T02:52:11.106Z,10.70
2017-07-10T02:54:37.454Z,8.70
2017-07-10T02:57:03.809Z,14.43
2017-07-10T02:59:30.171Z,15.73
2017-07-10T03:01:57.250Z,14.70
2017-07-10T03:04:23.587Z,11.40
2017-07-10T03:06:50.016Z,19.30
2017-07-10T03:09:16.350Z,15.90
2017-07-10T03:11:42.665Z,19.83
2017-07-10T03:14:09.074Z,9.23
2017-07-10T03:16:36.135Z,10.40
2017-07-10T03:19:03.201Z,10.50
2017-07-10T03:21:29.561Z,10.23
2017-07-10T03:23:55.927Z,12.20
2017-07-10T03:26:22.313Z,10.90
2017-07-10T03:28:48.621Z,14.17
2017-07-10T03:31:15.041Z,14.40
2017-07-10T03:33:42.085Z,10.20
2017-07-10T03:36:09.173Z,8.03
2017-07-10T03:38:36.138Z,18.47
2017-07-10T03:41:02.500Z,8.33
2017-07-10T03:43:29.551Z,9.03
2017-07-10T03:45:56.676Z,8.83
2017-07-10T03:48:23.019Z,10.30
2017-07-10T03:50:49.373Z,13.03
2017-07-10T03:53:16.479Z,15.43
2017-07-10T03:55:42.776Z,14.07
2017-07-10T03:58:09.088Z,11.13
2017-07-10T04:00:35.476Z,8.60
2017-07-10T04:03:01.799Z,15.47
2017-07-10T04:05:28.108Z,11.77
2017-07-10T04:07:54.461Z,8.27
2017-07-10T04:10:20.875Z,12.67
2017-07-10T04:12:47.230Z,9.43
2017-07-10T04:15:13.638Z,10.83
2017-07-10T04:17:40.048Z,8.53
2017-07-10T04:20:06.420Z,9.23
2017-07-10T04:22:32.828Z,14.40
2017-07-10T04:24:59.140Z,10.60
2017-07-10T04:27:25.680Z,9.07
2017-07-10T04:29:52.081Z,10.93
2017-07-10T04:32:19.177Z,11.80
2017-07-10T04:34:45.494Z,5.70
2017-07-10T04:37:11.807Z,9.03
2017-07-10T04:39:38.931Z,10.60
2017-07-10T04:42:05.274Z,9.20
2017-07-10T04:44:32.396Z,5.80
2017-07-10T04:46:58.784Z,8.50
2017-07-10T04:49:25.805Z,13.07
2017-07-10T04:51:52.900Z,9.90
2017-07-10T04:54:19.203Z,10.33
2017-07-10T04:56:45.532Z,9.10
2017-07-10T04:59:11.915Z,11.27
2017-07-10T05:01:38.703Z,15.17
2017-07-10T05:04:05.012Z,9.20
2017-07-10T05:06:32.106Z,8.97
2017-07-10T05:08:58.416Z,6.60
2017-07-10T05:11:24.761Z,14.47
2017-07-10T05:13:51.123Z,7.97
2017-07-10T05:16:32.364Z,8.37
2017-07-10T05:18:58.813Z,14.80
2017-07-10T05:21:25.202Z,4.53
2017-07-10T05:23:52.245Z,12.07
2017-07-10T05:26:19.340Z,8.07
2017-07-10T05:28:45.696Z,8.30
2017-07-10T05:31:12.005Z,7.97
2017-07-10T05:33:38.419Z,6.97
2017-07-10T05:36:04.738Z,10.67
2017-07-10T05:38:31.865Z,7.90
2017-07-10T05:40:58.228Z,10.00
2017-07-10T05:43:24.599Z,8.30
2017-07-10T05:45:50.923Z,9.27
2017-07-10T05:48:17.238Z,11.10
2017-07-10T05:50:43.608Z,5.10
2017-07-10T05:53:09.921Z,12.37
2017-07-10T05:55:36.419Z,15.50
2017-07-10T05:58:02.778Z,11.00
2017-07-10T06:00:29.095Z,16.50
2017-07-10T06:02:55.467Z,10.20
2017-07-10T06:05:21.807Z,9.47
2017-07-10T06:07:48.175Z,10.10
2017-07-10T06:10:14.615Z,8.80
2017-07-10T06:12:40.918Z,9.00
2017-07-10T06:15:08.025Z,8.40
2017-07-10T06:17:34.380Z,8.50
2017-07-10T06:20:00.759Z,8.00
2017-07-10T06:22:27.091Z,6.37
2017-07-10T06:24:53.454Z,7.37
2017-07-10T06:27:19.756Z,4.60
2017-07-10T06:29:46.060Z,8.33
2017-07-10T06:32:12.409Z,6.03
2017-07-10T06:34:38.754Z,3.50
2017-07-10T06:37:05.067Z,5.43
2017-07-10T06:39:31.497Z,5.70
2017-07-10T06:41:57.814Z,5.60
2017-07-10T06:44:24.133Z,5.10
2017-07-10T06:46:51.261Z,11.67
2017-07-10T06:49:17.553Z,6.90
2017-07-10T06:51:43.852Z,7.33
2017-07-10T06:54:11.005Z,9.67
2017-07-10T06:56:37.349Z,7.70
2017-07-10T06:59:03.698Z,4.53
2017-07-10T07:01:30.013Z,7.57
2017-07-10T07:03:56.387Z,9.83
2017-07-10T07:06:22.737Z,12.27
2017-07-10T07:08:49.794Z,7.77
2017-07-10T07:11:16.966Z,11.67
2017-07-10T07:13:43.280Z,8.53
2017-07-10T07:16:10.404Z,9.03
2017-07-10T07:18:37.497Z,7.47
2017-07-10T07:21:03.821Z,9.73
2017-07-10T07:23:30.193Z,6.37
2017-07-10T07:25:56.536Z,5.10
2017-07-10T07:28:22.945Z,9.30
2017-07-10T07:30:49.263Z,6.87
2017-07-10T07:33:15.600Z,6.30
2017-07-10T07:35:41.959Z,6.27
2017-07-10T07:38:08.281Z,3.90
2017-07-10T07:40:34.627Z,3.87
2017-07-10T07:43:01.039Z,5.13
2017-07-10T07:45:27.380Z,5.60
2017-07-10T07:47:53.705Z,4.43
2017-07-10T07:50:20.071Z,4.10
2017-07-10T07:52:47.134Z,4.50
2017-07-10T07:55:14.265Z,5.33
2017-07-10T07:57:40.666Z,4.63
2017-07-10T08:00:07.049Z,5.57
2017-07-10T08:02:34.147Z,4.97
2017-07-10T08:05:00.451Z,8.23
2017-07-10T08:07:26.752Z,5.20
2017-07-10T08:09:53.849Z,5.77
2017-07-10T08:12:20.165Z,4.83
2017-07-10T08:14:46.470Z,5.50
2017-07-10T08:17:12.839Z,4.83
2017-07-10T08:19:39.175Z,5.20
2017-07-10T08:22:05.512Z,5.90
2017-07-10T08:24:31.890Z,9.30
2017-07-10T08:26:58.936Z,6.67
2017-07-10T08:29:26.071Z,5.73
2017-07-10T08:31:53.182Z,6.27
2017-07-10T08:34:19.607Z,6.97
2017-07-10T08:36:45.951Z,6.27
2017-07-10T08:39:12.317Z,6.20
2017-07-10T08:41:38.634Z,5.83
2017-07-10T08:44:05.012Z,6.20
2017-07-10T08:46:31.339Z,6.50
2017-07-10T08:48:57.665Z,5.37
2017-07-10T08:51:24.066Z,6.63
2017-07-10T08:53:50.399Z,6.13
2017-07-10T08:56:16.713Z,6.20
2017-07-10T08:58:43.081Z,6.27
2017-07-10T09:01:10.168Z,5.23
2017-07-10T09:03:36.548Z,5.80
2017-07-10T09:06:03.628Z,6.17
2017-07-10T09:08:30.007Z,6.30
2017-07-10T09:10:56.324Z,6.00
2017-07-10T09:13:22.635Z,9.37
2017-07-10T09:15:49.020Z,6.13
2017-07-10T09:18:16.146Z,6.17
2017-07-10T09:20:42.455Z,6.10
2017-07-10T09:23:08.796Z,6.30
2017-07-10T09:25:35.146Z,6.80
2017-07-10T09:28:01.564Z,5.97
2017-07-10T09:30:27.968Z,5.70
2017-07-10T09:32:55.025Z,12.93
2017-07-10T09:35:21.408Z,7.23
2017-07-10T09:37:48.458Z,5.93
2017-07-10T09:40:15.551Z,9.00
2017-07-10T09:42:41.887Z,8.90
2017-07-10T09:45:08.334Z,7.83
2017-07-10T09:47:34.680Z,5.57
2017-07-10T09:50:01.027Z,6.07
2017-07-10T09:52:27.369Z,5.30
2017-07-10T09:54:54.465Z,5.43
2017-07-10T09:57:20.892Z,6.30
2017-07-10T09:59:47.273Z,6.10
2017-07-10T10:02:14.329Z,5.00
2017-07-10T10:04:41.418Z,6.10
2017-07-10T10:07:07.731Z,5.30
2017-07-10T10:09:34.084Z,5.53
2017-07-10T10:12:00.484Z,5.97
2017-07-10T10:14:26.796Z,5.47
2017-07-10T10:16:53.905Z,5.17
2017-07-10T10:19:20.371Z,5.57
2017-07-10T10:21:47.430Z,4.97
2017-07-10T10:24:14.535Z,5.70
2017-07-10T10:26:41.160Z,6.10
2017-07-10T10:29:07.484Z,6.57
2017-07-10T10:31:33.875Z,5.70
2017-07-10T10:34:01.050Z,6.03
2017-07-10T10:36:27.356Z,5.47
2017-07-10T10:38:54.413Z,5.90
2017-07-10T10:41:20.796Z,5.83
2017-07-10T10:43:47.105Z,6.37
2017-07-10T10:46:13.464Z,4.90
2017-07-10T10:48:39.801Z,6.87
2017-07-10T10:51:06.129Z,6.73
2017-07-10T10:53:32.504Z,6.77
2017-07-10T10:55:58.812Z,5.17
2017-07-10T10:58:25.134Z,6.80
2017-07-10T11:00:51.525Z,6.70
2017-07-10T11:03:17.886Z,12.53
2017-07-10T11:05:44.248Z,6.30
2017-07-10T11:08:11.351Z,5.50
2017-07-10T11:10:37.717Z,5.87
2017-07-10T11:13:04.061Z,5.57
2017-07-10T11:15:31.181Z,6.23
2017-07-10T11:17:57.533Z,5.40
2017-07-10T11:20:24.584Z,5.57
2017-07-10T11:22:51.685Z,5.23
2017-07-10T11:25:18.059Z,6.93
2017-07-10T11:27:44.443Z,5.63
2017-07-10T11:30:10.808Z,4.43
2017-07-10T11:32:37.110Z,5.07
2017-07-10T11:35:03.473Z,6.70
2017-07-10T11:37:29.768Z,6.40
2017-07-10T11:39:56.141Z,4.43
2017-07-10T11:42:22.544Z,8.93
2017-07-10T11:44:48.879Z,6.17
2017-07-10T11:47:15.267Z,4.87
2017-07-10T11:49:41.578Z,4.90
2017-07-10T11:52:08.680Z,4.93
2017-07-10T11:54:34.982Z,4.50
2017-07-10T11:57:01.313Z,4.53
2017-07-10T11:59:27.652Z,4.63
2017-07-10T12:01:53.956Z,5.10
2017-07-10T12:04:21.085Z,5.80
2017-07-10T12:06:47.442Z,7.10
2017-07-10T12:09:13.772Z,6.60
2017-07-10T12:11:40.121Z,6.50
2017-07-10T12:14:06.524Z,6.33
2017-07-10T12:16:33.608Z,5.10
2017-07-10T12:18:59.953Z,4.13
2017-07-10T12:21:26.321Z,5.57
2017-07-10T12:23:52.633Z,5.30
2017-07-10T12:26:19.001Z,6.17
2017-07-10T12:28:46.097Z,4.23
2017-07-10T12:31:12.409Z,5.37
2017-07-10T12:33:38.762Z,4.13
2017-07-10T12:36:05.079Z,4.60
2017-07-10T12:38:31.381Z,5.20
2017-07-10T12:40:57.769Z,3.90
2017-07-10T12:43:24.113Z,3.20
2017-07-10T12:45:50.430Z,3.20
2017-07-10T12:48:16.773Z,3.00
2017-07-10T12:50:43.094Z,4.10
2017-07-10T12:53:09.477Z,4.13
2017-07-10T12:55:35.791Z,3.40
2017-07-10T12:58:02.924Z,4.17
2017-07-10T13:00:29.308Z,2.43
2017-07-10T13:02:55.634Z,2.53
2017-07-10T13:05:22.045Z,3.93
2017-07-10T13:07:48.367Z,2.60
2017-07-10T13:10:15.416Z,3.53
2017-07-10T13:12:42.505Z,2.60
2017-07-10T13:15:08.850Z,2.93
2017-07-10T13:17:35.175Z,2.77
2017-07-10T13:20:01.572Z,3.30
2017-07-10T13:22:27.914Z,2.77
2017-07-10T13:24:54.221Z,2.93
2017-07-10T13:27:20.717Z,2.77
2017-07-10T13:29:47.037Z,3.20
2017-07-10T13:32:13.417Z,2.53
2017-07-10T13:34:39.728Z,2.50
2017-07-10T13:37:06.799Z,3.90
2017-07-10T13:39:33.163Z,3.23
2017-07-10T13:41:59.480Z,2.97
2017-07-10T13:44:25.783Z,2.70
2017-07-10T13:46:52.855Z,4.20
2017-07-10T13:49:19.221Z,3.00
2017-07-10T13:51:45.560Z,4.20
2017-07-10T13:54:11.876Z,3.37
2017-07-10T13:56:38.226Z,3.83
2017-07-10T13:59:04.572Z,4.00
2017-07-10T14:01:31.649Z,4.67
2017-07-10T14:03:57.969Z,5.20
2017-07-10T14:06:24.304Z,3.43
2017-07-10T14:08:50.619Z,4.70
2017-07-10T14:11:17.751Z,4.07
2017-07-10T14:13:44.069Z,4.67
2017-07-10T14:16:10.405Z,3.80
2017-07-10T14:18:36.737Z,6.70
2017-07-10T14:21:03.103Z,4.87
2017-07-10T14:23:30.139Z,3.90
2017-07-10T14:25:57.227Z,4.10
2017-07-10T14:28:23.576Z,4.73
2017-07-10T14:30:49.882Z,3.83
2017-07-10T14:33:16.230Z,4.97
2017-07-10T14:35:42.596Z,6.97
2017-07-10T14:38:08.960Z,9.23
2017-07-10T14:40:35.297Z,6.70
2017-07-10T14:43:01.658Z,7.23
2017-07-10T14:45:27.975Z,4.07
2017-07-10T14:47:54.339Z,4.90
2017-07-10T14:50:21.408Z,5.40
2017-07-10T14:52:47.780Z,4.83
2017-07-10T14:55:14.143Z,3.93
2017-07-10T14:57:40.455Z,5.53
2017-07-10T15:00:06.814Z,4.70
2017-07-10T15:02:33.152Z,5.00
2017-07-10T15:04:59.544Z,4.47
2017-07-10T15:07:25.924Z,4.10
2017-07-10T15:09:52.264Z,7.73
2017-07-10T15:12:19.335Z,4.70
2017-07-10T15:14:45.664Z,4.50
2017-07-10T15:17:11.980Z,7.63
2017-07-10T15:19:38.308Z,5.00
2017-07-10T15:22:05.361Z,5.13
2017-07-10T15:24:32.486Z,5.63
2017-07-10T15:26:58.803Z,4.57
2017-07-10T15:29:25.155Z,5.27
2017-07-10T15:31:51.546Z,4.27
2017-07-10T15:34:17.935Z,4.23
2017-07-10T15:36:45.027Z,4.60
2017-07-10T15:39:11.409Z,3.80
2017-07-10T15:41:38.486Z,4.20
2017-07-10T15:44:04.792Z,3.50
2017-07-10T15:46:31.865Z,4.10
2017-07-10T15:48:58.168Z,3.90
2017-07-10T15:51:25.281Z,4.10
2017-07-10T15:53:51.626Z,4.17
2017-07-10T15:56:17.981Z,5.17
2017-07-10T15:58:44.308Z,5.50
2017-07-10T16:01:11.379Z,3.57
2017-07-10T16:03:37.709Z,4.67
2017-07-10T16:06:04.053Z,4.80
2017-07-10T16:08:30.432Z,4.30
2017-07-10T16:10:56.745Z,4.90
2017-07-10T16:13:23.093Z,6.00
2017-07-10T16:15:49.443Z,4.37
2017-07-10T16:18:16.517Z,3.90
2017-07-10T16:20:42.837Z,3.63
2017-07-10T16:23:09.163Z,3.67
2017-07-10T16:25:35.473Z,3.50
2017-07-10T16:28:02.524Z,4.13
2017-07-10T16:30:29.586Z,3.97
2017-07-10T16:32:55.886Z,3.80
2017-07-10T16:35:22.232Z,5.63
2017-07-10T16:37:49.332Z,4.30
2017-07-10T16:40:15.673Z,3.73
2017-07-10T16:42:42.015Z,5.30
2017-07-10T16:45:08.377Z,4.37
2017-07-10T16:47:35.471Z,3.87
2017-07-10T16:50:01.854Z,4.63
2017-07-10T16:52:28.939Z,3.77
2017-07-10T16:54:55.272Z,4.50
2017-07-10T16:57:21.626Z,5.07
2017-07-10T16:59:47.948Z,3.37
2017-07-10T17:02:14.273Z,3.77
2017-07-10T17:04:40.580Z,4.40
2017-07-10T17:07:06.901Z,3.83
2017-07-10T17:09:33.216Z,3.97
2017-07-10T17:12:00.287Z,4.00
2017-07-10T17:14:26.603Z,3.67
2017-07-10T17:16:53.649Z,3.60
2017-07-10T17:19:20.741Z,3.63
2017-07-10T17:21:47.070Z,6.07
2017-07-10T17:24:13.451Z,3.20
2017-07-10T17:26:40.528Z,2.73
2017-07-10T17:29:06.881Z,2.53
2017-07-10T17:31:33.215Z,2.67
2017-07-10T17:33:59.612Z,2.53
2017-07-10T17:36:25.956Z,2.37
2017-07-10T17:38:52.337Z,2.60
2017-07-10T17:41:18.649Z,2.90
2017-07-10T17:43:44.962Z,2.53
2017-07-10T17:46:11.299Z,2.33
2017-07-10T17:48:37.604Z,2.60
2017-07-10T17:51:03.941Z,2.83
2017-07-10T17:53:30.241Z,2.80
2017-07-10T17:55:57.313Z,2.70
2017-07-10T17:58:23.619Z,2.87
2017-07-10T18:00:50.755Z,2.70
2017-07-10T18:03:17.084Z,2.80
2017-07-10T18:05:43.463Z,2.80
2017-07-10T18:08:09.848Z,3.13
2017-07-10T18:10:36.194Z,3.63
2017-07-10T18:13:03.319Z,3.00
2017-07-10T18:15:29.662Z,4.43
2017-07-10T18:17:56.371Z,3.00
2017-07-10T18:20:22.718Z,2.70
2017-07-10T18:22:49.062Z,4.53
2017-07-10T18:25:15.366Z,2.93
2017-07-10T18:27:41.744Z,3.20
2017-07-10T18:30:08.903Z,2.63
2017-07-10T18:32:35.270Z,2.50
2017-07-10T18:35:01.630Z,2.80
2017-07-10T18:37:27.947Z,2.60
2017-07-10T18:39:54.670Z,2.73
2017-07-10T18:42:21.000Z,4.57
2017-07-10T18:44:47.403Z,2.63
2017-07-10T18:47:13.848Z,3.10
2017-07-10T18:49:40.180Z,3.70
2017-07-10T18:52:06.553Z,2.27
2017-07-10T18:54:32.852Z,2.27
2017-07-10T18:56:59.181Z,2.57
2017-07-10T18:59:25.488Z,2.37
2017-07-10T19:01:51.819Z,3.00
2017-07-10T19:04:18.130Z,2.77
2017-07-10T19:06:45.435Z,2.70
2017-07-10T19:09:11.772Z,3.33
2017-07-10T19:11:38.178Z,2.73
2017-07-10T19:14:04.527Z,2.20
2017-07-10T19:16:30.901Z,3.37
2017-07-10T19:18:57.214Z,3.37
2017-07-10T19:21:23.554Z,2.50
2017-07-10T19:23:49.916Z,3.40
2017-07-10T19:26:16.969Z,3.10
2017-07-10T19:28:43.348Z,2.87
2017-07-10T19:31:09.704Z,2.87
2017-07-10T19:33:36.047Z,4.23
2017-07-10T19:36:03.228Z,2.90
2017-07-10T19:38:29.620Z,3.27
2017-07-10T19:40:55.997Z,3.10
2017-07-10T19:43:22.332Z,3.50
2017-07-10T19:45:48.694Z,3.70
2017-07-10T19:48:15.085Z,2.70
2017-07-10T19:50:41.396Z,4.20
2017-07-10T19:53:08.445Z,4.77
2017-07-10T19:55:35.573Z,6.27
2017-07-10T19:58:01.914Z,4.10
2017-07-10T20:00:29.310Z,3.40
2017-07-10T20:02:55.695Z,3.13
2017-07-10T20:05:22.780Z,3.63
2017-07-10T20:07:49.082Z,5.53
2017-07-10T20:10:16.185Z,3.67
2017-07-10T20:12:42.551Z,3.40
2017-07-10T20:15:09.751Z,9.63
2017-07-10T20:17:36.120Z,3.20
2017-07-10T20:20:02.432Z,3.33
2017-07-10T20:22:28.784Z,3.20
2017-07-10T20:24:55.340Z,3.70
2017-07-10T20:27:22.385Z,3.80
2017-07-10T20:29:49.514Z,5.63
2017-07-10T20:32:15.816Z,4.10
2017-07-10T20:34:42.121Z,3.03
2017-07-10T20:37:08.613Z,3.53
2017-07-10T20:39:34.933Z,3.20
2017-07-10T20:42:01.294Z,3.30
2017-07-10T20:44:28.646Z,5.33
2017-07-10T20:46:55.750Z,3.13
2017-07-10T20:49:22.119Z,5.17
2017-07-10T20:51:48.554Z,3.60
2017-07-10T20:54:14.938Z,5.20
2017-07-10T20:56:41.291Z,4.10
2017-07-10T20:59:07.735Z,5.30
2017-07-10T21:01:34.081Z,3.70
2017-07-10T21:04:00.369Z,6.43
2017-07-10T21:06:26.711Z,6.73
2017-07-10T21:08:53.058Z,4.40
2017-07-10T21:11:19.483Z,5.70
2017-07-10T21:13:46.161Z,5.13
2017-07-10T21:16:13.491Z,4.20
2017-07-10T21:18:40.157Z,3.63
2017-07-10T21:21:07.411Z,3.23
2017-07-10T21:23:34.098Z,8.57
2017-07-10T21:26:00.513Z,4.60
2017-07-10T21:28:26.829Z,6.77
2017-07-10T21:30:53.255Z,4.17
2017-07-10T21:33:19.561Z,5.50
2017-07-10T21:35:46.617Z,7.57
2017-07-10T21:38:13.716Z,6.57
2017-07-10T21:40:40.110Z,5.57
2017-07-10T21:43:06.464Z,6.90
2017-07-10T21:45:32.823Z,4.97
2017-07-10T21:47:59.219Z,6.73
2017-07-10T21:50:25.540Z,4.73
2017-07-10T21:52:51.947Z,10.80
2017-07-10T21:55:19.009Z,6.23
2017-07-10T21:57:45.360Z,16.40
2017-07-10T22:00:11.731Z,2.67
2017-07-10T22:02:38.048Z,2.30
2017-07-10T22:05:04.350Z,3.13
2017-07-10T22:07:30.762Z,2.47
2017-07-10T22:09:57.805Z,2.87
2017-07-10T22:12:24.898Z,3.60
2017-07-10T22:14:51.245Z,2.80
2017-07-10T22:17:17.658Z,2.50
2017-07-10T22:19:43.958Z,3.20
2017-07-10T22:22:10.267Z,2.50
2017-07-10T22:24:36.622Z,3.77
2017-07-10T22:27:03.004Z,2.57
2017-07-10T22:29:29.350Z,3.70
2017-07-10T22:31:55.705Z,2.70
2017-07-10T22:34:22.773Z,2.97
2017-07-10T22:36:49.084Z,4.13
2017-07-10T22:39:16.172Z,4.03
2017-07-10T22:41:42.495Z,3.93
2017-07-10T22:44:08.862Z,2.70
2017-07-10T22:46:35.157Z,3.63
2017-07-10T22:49:01.465Z,3.10
2017-07-10T22:51:27.799Z,4.30
2017-07-10T22:53:54.157Z,4.00
2017-07-10T22:56:20.519Z,4.13
2017-07-10T22:58:46.831Z,3.37
2017-07-10T23:01:13.178Z,3.53
2017-07-10T23:03:39.576Z,4.77
2017-07-10T23:06:05.872Z,4.73
2017-07-10T23:08:32.922Z,5.33
2017-07-10T23:10:59.315Z,5.00
2017-07-10T23:13:25.670Z,3.50
2017-07-10T23:15:52.853Z,4.90
2017-07-10T23:18:19.162Z,4.07
2017-07-10T23:20:46.261Z,6.60
2017-07-10T23:23:12.572Z,4.37
2017-07-10T23:25:38.895Z,4.40
2017-07-10T23:28:05.280Z,5.10
2017-07-10T23:30:31.589Z,4.13
2017-07-10T23:32:57.925Z,6.80
2017-07-10T23:35:24.325Z,3.40
2017-07-10T23:37:50.659Z,3.80
2017-07-10T23:40:17.107Z,5.00
2017-07-10T23:42:43.453Z,3.27
2017-07-10T23:45:09.813Z,3.17
2017-07-10T23:47:36.910Z,3.03
2017-07-10T23:50:03.205Z,3.00
2017-07-10T23:52:30.296Z,5.83
2017-07-10T23:54:56.776Z,2.70
2017-07-10T23:57:23.815Z,3.90
2017-07-10T23:59:50.208Z,4.63
